Spring Valley, CA

6:51 AM PDT on September 30, 2014 (GMT -0700)
Montgomery | Change Station
CLOSE
Current Station
Airport
Location: San Diego Montgomery,
Elevation: 423 ft
Nearby Weather Stations

Elev 423 ft 32.82 °N, 117.14 °W | Updated 58 minutes ago

Clear
Clear
63 °F
Feels Like 63 °F
N
0
Wind Variable Wind from North

Today
High -- | Low -- °F
--% Chance of Precip.
Yesterday
High -- | Low -- °F
Precip. -- in
6:41 AM 6:33 PM
Waxing Crescent, 37% visible
Pressure 29.85 in
Visibility 10.0 miles
Clouds Clear
Dew Point 57 °F
Humidity 81%
Rainfall 0.00 in
Snow Depth 0 in , 0 in , 1 in
UV 0 out of 12
Pollen 5.10 out of 12
Ozone Good
PM2.5 Good
Flu Activity Not available.
METAR KMYF 301253Z 00000KT 10SM CLR 17/14 A2985 RMK AO2 SLP106 T01720139

More Conditions Fewer Conditions

Pressure 29.85 in
Visibility 10.0 miles
Clouds Clear
Dew Point 57 °F
Humidity 81%
Rainfall 0.00 in
Snow Depth 0 in , 0 in , 1 in
UV 0 out of 12
Pollen 5.10 out of 12
Ozone Good
PM2.5 Good
Flu Activity Not available.
METAR KMYF 301253Z 00000KT 10SM CLR 17/14 A2985 RMK AO2 SLP106 T01720139

More Conditions Fewer Conditions

10-Day Weather Forecast

Almanac

Astronomy

Sep. 30, 2014 Rise Set
Actual Time 6:41 AM PDT 6:33 PM PDT
Civil Twilight 6:16 AM PDT 6:58 PM PDT
Nautical Twilight 5:48 AM PDT 7:26 PM PDT
Astronomical Twilight 5:19 AM PDT 7:55 PM PDT
Moon 12:39 PM PDT 11:22 PM PDT
Length of Visible Light 12h 41m
Length of Day
11h 52m
Tomorrow will be 1m 59s shorter.
Waxing Crescent, 37% of the Moon is Illuminated
Today
Waxing Crescent
Oct 1
First Quarter
Oct 8
Full
Oct 15
Last Quarter
Oct 23
New

Today's Extremes

State Highs State Lows

Community

WunderPhotos

Upload Photos

1,757,636 photos uploaded!

Nearby

Air Quality

  Air Quality AQ Index Pollutant
Yesterday Good
PM2.5
Yesterday Good
OZONE
Current Good
PM2.5
Current Good
OZONE
Tuesday Good
PM2.5
Tuesday Good
OZONE

Snow Depth

Station Depth Elevation
Horse Meadow 0 in 8631 ft
Forestdale Creek 0 in 8029 ft
Echo Peak 1 in 7800 ft
Poison Flat 0 in 7900 ft
Leavitt Lake 1 in 9400 ft

Earthquake Activity

City Distance Mag. Time & Date
No recent earthquake activity has been reported nearby.
Minimum magnitude displayed is 2.5.

Coastal Water Temperatures

Place Temperature
La Jolla, CA 66.0 °F
San Diego, CA 73.0 °F

Nearby Weather Stations